Time;durP1;ratioP1;P1;durP2;ratioP2;P2;SDS_P1;SDS_P2;PMS_P1;PMS_P2;Temp;Humidity;BMP_temperature;BMP_pressure;BME280_temperature;BME280_humidity;BME280_pressure;Samples;Min_cycle;Max_cycle;Signal;HPM_P1;HPM_P2
2023/12/26 00:00:06;;;;;;;0.85;0.40;;;;;;;9.99;81.42;99200.69;334451;28;17483;-75
2023/12/26 00:00:18;;;;;;;1.25;0.30;;;;;;;9.99;81.11;99221.47;328419;28;17808;-75
2023/12/26 00:00:30;;;;;;;0.90;0.30;;;;;;;9.93;81.23;99213.91;335680;29;4546;-75
2023/12/26 00:00:42;;;;;;;2.17;0.40;;;;;;;9.98;81.22;99209.41;332420;29;17726;-75
2023/12/26 00:00:54;;;;;;;1.67;0.40;;;;;;;9.97;81.73;99209.47;335882;29;4552;-74
2023/12/26 00:01:07;;;;;;;2.10;0.35;;;;;;;9.99;81.52;99211.09;331966;28;20001;-75
2023/12/26 00:01:19;;;;;;;0.98;0.30;;;;;;;10.06;81.64;99203.06;335790;28;4803;-75
2023/12/26 00:01:31;;;;;;;0.40;0.30;;;;;;;10.06;81.57;99200.47;334240;28;12371;-75
2023/12/26 00:01:46;;;;;;;0.50;0.32;;;;;;;9.96;81.58;99211.22;334321;29;5277;-75
2023/12/26 00:01:58;;;;;;;0.50;0.47;;;;;;;9.97;81.47;99207.69;331933;29;17536;-75
2023/12/26 00:02:10;;;;;;;0.45;0.45;;;;;;;9.96;81.78;99185.25;335912;28;6022;-75
2023/12/26 00:02:24;;;;;;;0.30;0.30;;;;;;;10.08;81.25;99206.44;331996;28;18171;-75
2023/12/26 00:02:36;;;;;;;0.35;0.35;;;;;;;10.07;80.93;99196.97;333417;28;4736;-75
2023/12/26 00:02:48;;;;;;;0.30;0.30;;;;;;;10.07;81.28;99213.41;336526;28;5231;-75
2023/12/26 00:03:06;;;;;;;0.40;0.40;;;;;;;10.13;80.89;99199.34;335586;28;4698;-75
2023/12/26 00:03:18;;;;;;;0.47;0.40;;;;;;;10.12;80.92;99205.44;332921;28;17752;-75
2023/12/26 00:03:30;;;;;;;0.60;0.30;;;;;;;10.15;80.90;99200.97;336107;28;4833;-75
2023/12/26 00:03:43;;;;;;;0.45;0.22;;;;;;;10.13;80.93;99207.13;332161;29;18316;-74
2023/12/26 00:03:55;;;;;;;0.40;0.30;;;;;;;10.08;80.72;99198.66;334815;29;4641;-75
2023/12/26 00:04:07;;;;;;;0.30;0.30;;;;;;;10.14;80.73;99201.91;330335;29;13556;-75
2023/12/26 00:04:19;;;;;;;0.30;0.30;;;;;;;10.15;80.75;99190.59;334378;29;5769;-75
2023/12/26 00:04:34;;;;;;;0.22;0.22;;;;;;;10.13;80.82;99199.34;331549;29;17825;-75
2023/12/26 00:04:46;;;;;;;0.22;0.20;;;;;;;10.07;81.35;99207.38;330136;29;5462;-75
2023/12/26 00:04:58;;;;;;;0.40;0.30;;;;;;;10.00;81.80;99202.41;332298;29;16558;-75
2023/12/26 00:05:10;;;;;;;1.20;0.50;;;;;;;9.94;81.80;99205.25;334674;28;4837;-75
2023/12/26 00:05:22;;;;;;;1.30;0.50;;;;;;;9.89;82.09;99196.75;335527;28;5487;-75
2023/12/26 00:05:35;;;;;;;1.65;0.57;;;;;;;9.86;81.95;99194.28;331953;29;18175;-75
2023/12/26 00:05:47;;;;;;;0.75;0.35;;;;;;;9.90;81.98;99201.06;335245;29;5469;-75
2023/12/26 00:05:59;;;;;;;0.40;0.30;;;;;;;9.97;81.54;99209.47;331831;29;17634;-75
2023/12/26 00:06:12;;;;;;;0.50;0.30;;;;;;;9.94;81.54;99202.63;335503;28;4639;-75
2023/12/26 00:06:24;;;;;;;1.30;0.47;;;;;;;9.98;81.45;99214.59;335111;28;4654;-75
2023/12/26 00:06:36;;;;;;;1.20;0.50;;;;;;;9.98;81.55;99204.22;336792;28;4938;-75
2023/12/26 00:06:49;;;;;;;0.82;0.47;;;;;;;10.10;81.28;99186.47;334057;28;18097;-75
2023/12/26 00:07:01;;;;;;;0.55;0.32;;;;;;;10.06;81.08;99200.47;335975;28;4533;-75
2023/12/26 00:07:13;;;;;;;0.60;0.30;;;;;;;10.14;80.57;99186.31;334293;28;13244;-75
2023/12/26 00:07:25;;;;;;;0.40;0.30;;;;;;;10.20;80.52;99203.38;337242;28;4657;-75
2023/12/26 00:07:37;;;;;;;0.63;0.40;;;;;;;10.20;80.16;99203.38;336104;28;5234;-75
2023/12/26 00:07:49;;;;;;;0.70;0.38;;;;;;;10.20;80.59;99198.19;331340;28;5050;-75
2023/12/26 00:08:03;;;;;;;0.73;0.30;;;;;;;10.13;80.67;99196.75;334685;28;4690;-75
2023/12/26 00:08:16;;;;;;;0.73;0.38;;;;;;;10.05;80.74;99198.78;331830;28;17740;-75
2023/12/26 00:08:28;;;;;;;0.95;0.40;;;;;;;9.96;81.50;99202.56;334526;28;5514;-75
2023/12/26 00:08:40;;;;;;;0.70;0.40;;;;;;;9.92;81.44;99196.66;332700;28;18064;-75
2023/12/26 00:08:52;;;;;;;1.10;0.40;;;;;;;9.99;81.07;99189.47;334938;28;4547;-75
2023/12/26 00:09:04;;;;;;;1.25;0.47;;;;;;;10.06;81.28;99190.09;332175;28;14442;-75
2023/12/26 00:09:16;;;;;;;1.10;0.40;;;;;;;10.08;81.34;99188.28;335178;28;4755;-75
2023/12/26 00:09:29;;;;;;;0.43;0.22;;;;;;;10.12;80.92;99195.03;333748;29;12982;-75
2023/12/26 00:09:41;;;;;;;1.40;0.30;;;;;;;10.10;80.77;99192.53;329328;28;17324;-75
2023/12/26 00:09:53;;;;;;;1.30;0.30;;;;;;;10.03;81.00;99195.41;335554;29;4711;-75
2023/12/26 00:10:05;;;;;;;0.45;0.30;;;;;;;9.93;81.25;99195.75;332364;28;18368;-75
2023/12/26 00:10:18;;;;;;;0.32;0.30;;;;;;;9.95;81.44;99188.75;335621;28;4563;-75
2023/12/26 00:10:30;;;;;;;0.82;0.22;;;;;;;9.98;81.27;99193.84;332830;28;6033;-75
2023/12/26 00:10:42;;;;;;;0.68;0.20;;;;;;;9.99;81.17;99195.50;336275;28;4635;-75
2023/12/26 00:10:55;;;;;;;0.43;0.30;;;;;;;9.96;81.86;99193.03;331642;28;17804;-75
2023/12/26 00:11:07;;;;;;;0.47;0.40;;;;;;;10.04;81.49;99192.75;335039;28;4772;-75
2023/12/26 00:11:19;;;;;;;0.52;0.40;;;;;;;9.98;81.79;99188.63;333277;28;16791;-75
2023/12/26 00:11:31;;;;;;;0.55;0.40;;;;;;;9.96;81.50;99200.84;335461;28;4700;-75
2023/12/26 00:11:45;;;;;;;0.30;0.30;;;;;;;9.95;81.99;99193.94;335646;29;4543;-75
2023/12/26 00:11:57;;;;;;;0.52;0.30;;;;;;;10.03;81.80;99191.06;328303;28;17991;-75
2023/12/26 00:12:09;;;;;;;1.10;0.30;;;;;;;10.03;81.59;99193.66;335561;28;5381;-75
2023/12/26 00:12:24;;;;;;;1.10;0.30;;;;;;;10.09;81.69;99189.97;332664;28;18218;-75
2023/12/26 00:12:36;;;;;;;0.38;0.38;;;;;;;10.08;81.42;99185.69;331782;28;16553;-75
2023/12/26 00:12:48;;;;;;;0.40;0.40;;;;;;;10.00;81.50;99192.03;336102;28;4835;-75
2023/12/26 00:13:01;;;;;;;1.10;0.30;;;;;;;10.03;81.17;99187.63;332524;28;14241;-75
2023/12/26 00:13:13;;;;;;;1.17;0.35;;;;;;;10.02;81.60;99189.38;335306;28;4687;-75
2023/12/26 00:13:25;;;;;;;0.52;0.43;;;;;;;9.99;81.21;99200.69;331350;28;4697;-75
2023/12/26 00:13:37;;;;;;;1.13;0.47;;;;;;;10.04;81.18;99197.09;337025;28;4548;-75
2023/12/26 00:13:49;;;;;;;1.83;0.32;;;;;;;10.00;81.35;99196.38;335852;28;5564;-75
2023/12/26 00:14:02;;;;;;;1.35;0.20;;;;;;;10.06;80.96;99192.69;333477;28;17461;-75
2023/12/26 00:14:17;;;;;;;0.95;0.30;;;;;;;10.14;81.11;99190.63;336137;28;5076;-75
2023/12/26 00:14:30;;;;;;;0.35;0.30;;;;;;;10.09;80.66;99182.19;332803;28;18833;-75
2023/12/26 00:14:42;;;;;;;0.38;0.38;;;;;;;10.07;80.68;99191.78;332724;28;16139;-75
2023/12/26 00:14:54;;;;;;;0.40;0.32;;;;;;;10.10;81.20;99181.28;335713;28;4622;-75
2023/12/26 00:15:07;;;;;;;0.40;0.30;;;;;;;10.03;81.01;99185.03;333122;28;19063;-75
2023/12/26 00:15:19;;;;;;;0.45;0.40;;;;;;;9.99;81.41;99179.94;336438;28;4555;-75
2023/12/26 00:15:31;;;;;;;0.50;0.30;;;;;;;10.05;81.35;99191.00;332047;29;17802;-75
2023/12/26 00:15:43;;;;;;;0.63;0.43;;;;;;;10.03;81.38;99177.22;335045;28;5449;-75
2023/12/26 00:15:56;;;;;;;0.93;0.57;;;;;;;10.05;81.18;99188.41;334606;29;19300;-75
2023/12/26 00:16:08;;;;;;;0.90;0.50;;;;;;;10.10;80.78;99163.97;331601;28;18400;-75
2023/12/26 00:16:20;;;;;;;0.40;0.20;;;;;;;10.14;80.82;99180.25;331544;29;4547;-75
2023/12/26 00:16:32;;;;;;;0.30;0.20;;;;;;;10.07;80.88;99186.59;333289;28;18085;-75
2023/12/26 00:16:44;;;;;;;0.40;0.32;;;;;;;10.09;80.69;99182.19;336077;29;4714;-75
2023/12/26 00:16:56;;;;;;;0.40;0.40;;;;;;;10.10;80.67;99183.88;332058;29;18164;-75
2023/12/26 00:17:08;;;;;;;0.40;0.40;;;;;;;10.00;80.90;99173.84;335315;28;4565;-75
2023/12/26 00:17:21;;;;;;;0.30;0.30;;;;;;;9.97;80.78;99192.13;334944;28;5393;-75
2023/12/26 00:17:33;;;;;;;0.20;0.20;;;;;;;10.02;81.13;99204.09;329262;28;18321;-74
2023/12/26 00:17:46;;;;;;;0.50;0.40;;;;;;;10.07;81.01;99169.25;337433;28;4574;-75
2023/12/26 00:17:58;;;;;;;0.55;0.45;;;;;;;10.01;80.71;99187.66;333532;28;18409;-75
2023/12/26 00:18:10;;;;;;;0.90;0.38;;;;;;;10.00;80.76;99176.44;335915;28;5387;-75
2023/12/26 00:18:22;;;;;;;0.90;0.30;;;;;;;9.91;80.91;99192.34;333765;28;18044;-75
2023/12/26 00:18:35;;;;;;;0.45;0.22;;;;;;;9.97;81.30;99175.72;335906;28;5322;-75
2023/12/26 00:18:47;;;;;;;0.20;0.20;;;;;;;9.92;81.13;99188.00;331915;28;10334;-75
2023/12/26 00:18:59;;;;;;;0.90;0.35;;;;;;;9.92;81.60;99188.00;334930;28;4681;-75
2023/12/26 00:19:12;;;;;;;1.30;0.40;;;;;;;9.92;81.47;99188.88;331334;28;4654;-75
2023/12/26 00:19:24;;;;;;;0.80;0.40;;;;;;;9.90;81.58;99185.47;332997;28;18214;-74
2023/12/26 00:19:36;;;;;;;0.60;0.40;;;;;;;9.87;81.31;99180.41;335913;29;4678;-75
2023/12/26 00:19:49;;;;;;;0.30;0.30;;;;;;;9.89;81.69;99196.75;333348;28;18299;-75
2023/12/26 00:20:04;;;;;;;0.30;0.28;;;;;;;9.89;81.86;99188.97;335485;28;5231;-75
2023/12/26 00:20:17;;;;;;;0.30;0.30;;;;;;;9.95;81.24;99188.75;336153;28;17844;-75
2023/12/26 00:20:29;;;;;;;0.60;0.35;;;;;;;9.92;81.52;99186.28;334336;28;17974;-74
2023/12/26 00:20:43;;;;;;;0.80;0.50;;;;;;;9.87;81.94;99185.59;336625;28;4768;-75
2023/12/26 00:20:56;;;;;;;0.68;0.45;;;;;;;9.92;81.77;99181.09;334855;28;17593;-75
2023/12/26 00:21:08;;;;;;;0.90;0.40;;;;;;;9.91;81.95;99179.38;332664;28;13696;-75
2023/12/26 00:21:20;;;;;;;1.00;0.40;;;;;;;9.97;81.48;99176.53;336730;28;5186;-75
2023/12/26 00:21:32;;;;;;;0.28;0.28;;;;;;;9.98;81.84;99178.25;333981;28;12088;-75
2023/12/26 00:21:44;;;;;;;0.50;0.20;;;;;;;10.04;81.53;99184.09;334794;28;4610;-75
2023/12/26 00:21:56;;;;;;;0.68;0.32;;;;;;;10.06;81.17;99187.47;334832;28;5271;-75
2023/12/26 00:22:08;;;;;;;0.98;0.50;;;;;;;10.05;80.83;99184.06;332439;28;17921;-75
2023/12/26 00:22:20;;;;;;;0.88;0.55;;;;;;;10.06;81.34;99184.88;336143;28;5160;-75
2023/12/26 00:22:34;;;;;;;0.43;0.35;;;;;;;10.01;81.39;99187.66;332493;28;18093;-75
2023/12/26 00:22:47;;;;;;;0.75;0.22;;;;;;;10.06;81.52;99187.47;334006;29;5190;-75
2023/12/26 00:22:59;;;;;;;0.90;0.30;;;;;;;10.01;81.00;99192.88;332100;29;19365;-75
2023/12/26 00:23:11;;;;;;;0.65;0.30;;;;;;;9.96;81.43;99184.38;333835;29;5087;-75
2023/12/26 00:23:23;;;;;;;0.40;0.30;;;;;;;9.98;81.22;99188.63;331044;29;13482;-75
2023/12/26 00:23:35;;;;;;;0.50;0.30;;;;;;;10.07;81.36;99181.41;331238;29;18307;-75
2023/12/26 00:23:47;;;;;;;0.50;0.30;;;;;;;10.09;81.27;99187.38;333763;29;5488;-74
2023/12/26 00:23:59;;;;;;;0.57;0.30;;;;;;;10.03;81.21;99187.63;332434;29;18025;-75
2023/12/26 00:24:11;;;;;;;0.50;0.40;;;;;;;10.08;80.89;99194.34;334335;29;5611;-75
2023/12/26 00:24:24;;;;;;;0.40;0.40;;;;;;;10.10;80.69;99181.28;331441;29;5252;-75
2023/12/26 00:24:36;;;;;;;0.30;0.30;;;;;;;10.10;81.24;99186.47;332183;29;4765;-75
2023/12/26 00:24:49;;;;;;;0.30;0.30;;;;;;;10.05;81.05;99188.41;325688;29;6329;-75
2023/12/26 00:25:02;;;;;;;0.28;0.25;;;;;;;10.04;81.30;99187.56;333620;29;4563;-75
2023/12/26 00:25:14;;;;;;;0.30;0.20;;;;;;;10.05;81.19;99178.03;331821;29;17123;-75
2023/12/26 00:25:26;;;;;;;0.22;0.20;;;;;;;9.98;81.47;99191.22;335143;29;5197;-75
2023/12/26 00:25:38;;;;;;;0.28;0.20;;;;;;;9.92;81.68;99191.47;332623;28;17957;-75
2023/12/26 00:25:51;;;;;;;0.40;0.20;;;;;;;9.95;81.65;99187.91;335677;28;4759;-75
2023/12/26 00:26:04;;;;;;;0.60;0.30;;;;;;;9.91;81.83;99181.97;335255;28;4584;-75
2023/12/26 00:26:16;;;;;;;0.50;0.40;;;;;;;9.94;81.74;99191.38;332410;28;18354;-75
2023/12/26 00:26:28;;;;;;;0.40;0.40;;;;;;;9.90;81.70;99190.69;332759;28;13888;-75
2023/12/26 00:26:40;;;;;;;0.40;0.40;;;;;;;9.93;82.02;99180.16;336466;28;5495;-75
2023/12/26 00:26:52;;;;;;;0.40;0.40;;;;;;;9.93;82.02;99195.75;334703;28;5356;-75
2023/12/26 00:27:04;;;;;;;0.35;0.30;;;;;;;9.98;81.93;99175.66;331464;28;16677;-75
2023/12/26 00:27:16;;;;;;;0.35;0.30;;;;;;;10.02;81.30;99185.91;335536;28;5246;-75
2023/12/26 00:27:29;;;;;;;0.63;0.30;;;;;;;10.02;81.07;99183.31;331477;28;18022;-75
2023/12/26 00:27:42;;;;;;;0.80;0.40;;;;;;;10.05;81.08;99178.03;329709;28;4583;-78
2023/12/26 00:27:54;;;;;;;0.63;0.40;;;;;;;10.16;80.92;99174.13;333505;28;8845;-78
2023/12/26 00:28:06;;;;;;;0.25;0.25;;;;;;;10.16;80.51;99188.81;335875;28;4764;-78
2023/12/26 00:28:19;;;;;;;1.65;0.30;;;;;;;10.21;80.39;99181.72;334207;28;4757;-78
2023/12/26 00:28:31;;;;;;;1.70;0.32;;;;;;;10.11;80.99;99188.16;332251;29;19432;-77
2023/12/26 00:28:43;;;;;;;0.30;0.30;;;;;;;10.10;81.17;99200.31;334106;29;5449;-77
2023/12/26 00:28:55;;;;;;;0.30;0.30;;;;;;;10.13;80.71;99186.34;331276;29;17930;-77
2023/12/26 00:29:08;;;;;;;0.20;0.20;;;;;;;10.11;80.73;99177.78;327082;29;4969;-78
2023/12/26 00:29:20;;;;;;;0.25;0.25;;;;;;;10.07;80.87;99181.41;328644;29;7408;-78
2023/12/26 00:29:32;;;;;;;0.50;0.40;;;;;;;10.11;80.83;99193.38;330823;29;4718;-77
2023/12/26 00:29:44;;;;;;;0.82;0.40;;;;;;;10.06;80.94;99175.38;329149;29;12192;-78
2023/12/26 00:29:56;;;;;;;0.80;0.30;;;;;;;10.02;81.15;99194.56;330285;29;4747;-77
2023/12/26 00:30:09;;;;;;;0.60;0.30;;;;;;;10.04;81.15;99192.75;331686;29;5177;-77
2023/12/26 00:30:21;;;;;;;0.60;0.30;;;;;;;10.12;80.77;99171.66;323483;29;18064;-78
2023/12/26 00:30:33;;;;;;;0.50;0.20;;;;;;;10.06;80.64;99190.09;332813;29;4717;-77
2023/12/26 00:30:46;;;;;;;0.20;0.20;;;;;;;9.97;80.98;99176.53;330749;29;20357;-77
2023/12/26 00:31:00;;;;;;;1.80;0.20;;;;;;;9.90;81.25;99187.22;331548;29;10110;-77
2023/12/26 00:31:12;;;;;;;1.70;0.20;;;;;;;9.91;81.15;99181.97;333211;29;5517;-78
2023/12/26 00:31:25;;;;;;;1.60;0.28;;;;;;;9.91;81.75;99196.72;331641;29;4611;-77
2023/12/26 00:31:41;;;;;;;0.80;0.30;;;;;;;9.94;81.31;99205.25;329195;29;19581;-77
2023/12/26 00:31:53;;;;;;;0.20;0.20;;;;;;;9.89;81.13;99183.78;329276;29;15609;-77
2023/12/26 00:32:05;;;;;;;0.45;0.22;;;;;;;9.97;81.37;99175.72;327744;29;19036;-78
2023/12/26 00:32:18;;;;;;;0.90;0.32;;;;;;;9.97;81.27;99158.38;331912;29;4859;-78
2023/12/26 00:32:30;;;;;;;1.80;0.35;;;;;;;9.90;81.04;99185.47;329102;29;11900;-77
2023/12/26 00:32:43;;;;;;;1.20;0.20;;;;;;;9.87;81.29;99179.56;331551;29;5517;-77
2023/12/26 00:32:55;;;;;;;0.20;0.20;;;;;;;9.91;81.29;99181.13;331662;29;12530;-77
2023/12/26 00:33:08;;;;;;;0.40;0.30;;;;;;;9.91;81.58;99196.72;332992;29;4766;-77
2023/12/26 00:33:20;;;;;;;0.30;0.30;;;;;;;9.85;81.52;99205.56;325732;29;12345;-78
2023/12/26 00:33:32;;;;;;;0.25;0.25;;;;;;;9.84;81.45;99190.91;333023;29;5596;-77
2023/12/26 00:33:44;;;;;;;0.45;0.30;;;;;;;9.82;81.95;99177.13;334061;29;5306;-77
2023/12/26 00:33:57;;;;;;;0.40;0.30;;;;;;;9.82;81.98;99182.34;326641;29;17998;-78
2023/12/26 00:34:09;;;;;;;0.35;0.30;;;;;;;9.82;82.11;99181.47;332505;29;5487;-78
2023/12/26 00:34:22;;;;;;;0.30;0.30;;;;;;;9.89;81.87;99182.94;329164;29;19027;-78
2023/12/26 00:34:34;;;;;;;0.25;0.20;;;;;;;9.91;81.79;99181.13;332001;29;4656;-77
2023/12/26 00:34:46;;;;;;;0.20;0.20;;;;;;;9.92;81.23;99188.00;330495;29;9991;-77
2023/12/26 00:34:58;;;;;;;0.20;0.20;;;;;;;9.93;81.85;99180.16;329298;29;5505;-77
2023/12/26 00:35:12;;;;;;;0.30;0.30;;;;;;;9.88;81.63;99182.09;333111;29;5314;-78
2023/12/26 00:35:24;;;;;;;0.40;0.30;;;;;;;9.88;81.78;99182.09;330716;28;18476;-78
2023/12/26 00:35:36;;;;;;;0.70;0.38;;;;;;;9.90;82.03;99176.81;331771;28;16336;-77
2023/12/26 00:35:48;;;;;;;0.90;0.40;;;;;;;9.90;82.12;99185.47;333461;29;4525;-78
2023/12/26 00:36:01;;;;;;;0.70;0.30;;;;;;;9.93;82.04;99182.75;332533;29;4604;-77
2023/12/26 00:36:18;;;;;;;0.40;0.30;;;;;;;9.95;81.59;99182.72;331873;29;16507;-78
2023/12/26 00:36:30;;;;;;;1.90;0.50;;;;;;;9.96;81.46;99187.84;325928;29;16701;-78
2023/12/26 00:36:42;;;;;;;2.97;0.50;;;;;;;10.03;81.49;99193.66;329988;29;9021;-78
2023/12/26 00:36:54;;;;;;;1.95;0.60;;;;;;;9.97;81.31;99188.69;333493;29;5067;-78
2023/12/26 00:37:07;;;;;;;1.70;0.60;;;;;;;9.99;81.07;99179.94;333634;29;4533;-78
2023/12/26 00:37:21;;;;;;;0.70;0.35;;;;;;;9.99;81.18;99179.09;329753;29;18030;-77
2023/12/26 00:37:33;;;;;;;0.55;0.30;;;;;;;9.90;81.59;99171.63;329422;29;17875;-77
2023/12/26 00:37:45;;;;;;;0.40;0.30;;;;;;;9.90;81.69;99175.09;333781;29;5409;-78
2023/12/26 00:38:01;;;;;;;0.50;0.30;;;;;;;9.89;81.48;99188.13;327972;29;4658;-77
2023/12/26 00:38:13;;;;;;;0.25;0.20;;;;;;;9.87;81.55;99180.41;326788;29;19159;-78
2023/12/26 00:38:26;;;;;;;0.40;0.30;;;;;;;9.94;81.41;99166.28;332330;29;4660;-77
2023/12/26 00:38:38;;;;;;;1.02;0.40;;;;;;;9.89;81.34;99178.59;329413;29;18020;-78
2023/12/26 00:38:50;;;;;;;1.13;0.40;;;;;;;9.85;81.10;99171.81;331064;29;5350;-78
2023/12/26 00:39:03;;;;;;;0.95;0.52;;;;;;;9.92;81.77;99175.88;326727;29;13432;-78
2023/12/26 00:39:15;;;;;;;0.40;0.40;;;;;;;9.93;81.35;99185.34;329097;29;4543;-78
2023/12/26 00:39:27;;;;;;;0.28;0.28;;;;;;;9.92;81.30;99175.88;325148;29;4948;-78
2023/12/26 00:39:40;;;;;;;0.22;0.20;;;;;;;9.93;81.04;99169.78;327341;29;17800;-78
2023/12/26 00:39:52;;;;;;;0.60;0.30;;;;;;;9.92;81.62;99180.22;332420;29;4736;-77
2023/12/26 00:40:05;;;;;;;0.70;0.38;;;;;;;9.97;81.17;99170.50;329671;29;17952;-78
2023/12/26 00:40:17;;;;;;;0.55;0.40;;;;;;;9.89;81.53;99172.56;331927;29;4610;-77
2023/12/26 00:40:29;;;;;;;0.40;0.30;;;;;;;9.90;81.37;99175.09;329586;29;18335;-77
2023/12/26 00:40:41;;;;;;;0.57;0.30;;;;;;;9.89;81.69;99177.75;332836;29;5094;-78
2023/12/26 00:40:53;;;;;;;0.60;0.30;;;;;;;9.91;81.81;99175.94;328543;29;17829;-77
2023/12/26 00:41:05;;;;;;;1.48;0.30;;;;;;;9.90;81.96;99180.28;331925;29;4562;-77
2023/12/26 00:41:18;;;;;;;1.17;0.30;;;;;;;9.92;81.72;99170.69;331830;29;4853;-78
2023/12/26 00:41:30;;;;;;;0.20;0.20;;;;;;;9.85;81.35;99171.81;328558;29;18446;-77
2023/12/26 00:41:42;;;;;;;0.20;0.20;;;;;;;9.75;81.72;99175.66;332990;29;5702;-77
2023/12/26 00:41:54;;;;;;;0.20;0.20;;;;;;;9.84;82.00;99175.34;331136;29;9175;-77
2023/12/26 00:42:06;;;;;;;0.38;0.30;;;;;;;9.82;81.94;99177.13;334793;29;4558;-77
2023/12/26 00:42:22;;;;;;;0.55;0.25;;;;;;;9.84;81.98;99170.13;329740;29;18785;-78
2023/12/26 00:42:34;;;;;;;1.35;0.32;;;;;;;9.90;82.15;99164.72;330971;29;5584;-78
2023/12/26 00:42:46;;;;;;;1.00;0.30;;;;;;;9.86;81.85;99170.94;333281;29;4557;-77
2023/12/26 00:42:58;;;;;;;1.13;0.32;;;;;;;9.84;81.90;99172.75;332249;29;13145;-77
2023/12/26 00:43:10;;;;;;;1.10;0.30;;;;;;;9.87;82.07;99176.97;332798;29;4630;-77
2023/12/26 00:43:22;;;;;;;1.50;0.30;;;;;;;9.85;81.87;99184.78;333627;29;5112;-77
2023/12/26 00:43:34;;;;;;;0.68;0.30;;;;;;;9.89;81.92;99173.41;330087;29;18478;-78
2023/12/26 00:43:46;;;;;;;0.60;0.30;;;;;;;9.85;81.85;99181.38;327940;29;4982;-77
2023/12/26 00:43:58;;;;;;;0.30;0.30;;;;;;;9.87;81.69;99188.19;333179;29;4634;-77
2023/12/26 00:44:10;;;;;;;0.57;0.40;;;;;;;9.90;81.73;99179.41;329774;29;17715;-78
2023/12/26 00:44:23;;;;;;;0.63;0.40;;;;;;;9.88;81.58;99173.44;335371;29;4539;-77
2023/12/26 00:44:35;;;;;;;0.40;0.30;;;;;;;9.90;81.51;99172.50;328989;29;17947;-78
2023/12/26 00:44:47;;;;;;;0.70;0.50;;;;;;;9.91;81.66;99181.97;332763;29;4684;-77
2023/12/26 00:44:59;;;;;;;1.08;0.50;;;;;;;9.92;81.56;99178.50;329209;29;13070;-77
2023/12/26 00:45:13;;;;;;;1.15;0.50;;;;;;;9.87;81.63;99177.78;329591;29;17326;-77
2023/12/26 00:45:25;;;;;;;0.88;0.40;;;;;;;9.84;81.33;99177.94;326395;29;16541;-77
2023/12/26 00:45:37;;;;;;;0.70;0.40;;;;;;;9.83;81.74;99184.00;332392;29;4752;-77
2023/12/26 00:45:49;;;;;;;1.00;0.30;;;;;;;9.81;81.74;99170.25;330792;29;4795;-77
2023/12/26 00:46:01;;;;;;;0.77;0.30;;;;;;;9.75;82.05;99170.47;333656;29;4551;-77
2023/12/26 00:46:13;;;;;;;0.77;0.40;;;;;;;9.76;82.32;99169.59;333348;29;5097;-78
2023/12/26 00:46:26;;;;;;;0.70;0.50;;;;;;;9.78;82.29;99172.97;332606;29;16803;-78
2023/12/26 00:46:38;;;;;;;0.85;0.30;;;;;;;9.79;81.88;99177.25;329813;29;5397;-78
2023/12/26 00:46:50;;;;;;;0.70;0.20;;;;;;;9.80;81.98;99173.75;331211;28;13955;-77
2023/12/26 00:47:02;;;;;;;0.43;0.30;;;;;;;9.88;82.05;99179.50;335936;28;4536;-78
2023/12/26 00:47:15;;;;;;;0.50;0.40;;;;;;;9.88;81.88;99176.91;336234;28;4980;-78
2023/12/26 00:47:27;;;;;;;0.40;0.35;;;;;;;9.90;81.85;99195.88;331674;29;16414;-78
2023/12/26 00:47:39;;;;;;;0.20;0.20;;;;;;;9.91;81.37;99176.78;335328;28;4851;-78
2023/12/26 00:47:51;;;;;;;0.25;0.25;;;;;;;9.97;81.53;99176.53;331100;28;17748;-78
2023/12/26 00:48:04;;;;;;;0.28;0.28;;;;;;;9.99;80.95;99179.94;329235;28;4591;-78
2023/12/26 00:48:16;;;;;;;1.00;0.30;;;;;;;10.08;81.06;99178.75;330337;29;18186;-78
2023/12/26 00:48:28;;;;;;;1.40;0.30;;;;;;;10.18;80.25;99174.03;335085;29;4552;-77
2023/12/26 00:48:41;;;;;;;0.75;0.32;;;;;;;10.14;80.32;99177.66;332475;29;17974;-78
2023/12/26 00:48:53;;;;;;;0.90;0.40;;;;;;;10.06;80.56;99182.28;334972;28;5148;-78
2023/12/26 00:49:05;;;;;;;1.10;0.40;;;;;;;9.96;80.73;99179.19;330727;29;18488;-78
2023/12/26 00:49:17;;;;;;;1.15;0.30;;;;;;;10.04;80.50;99191.88;328548;29;5512;-78
2023/12/26 00:49:30;;;;;;;1.27;0.30;;;;;;;9.96;80.42;99174.88;332860;28;12694;-78
2023/12/26 00:49:42;;;;;;;0.68;0.30;;;;;;;9.92;80.83;99183.69;334122;29;4738;-78
2023/12/26 00:49:57;;;;;;;0.65;0.30;;;;;;;10.02;80.62;99178.13;333353;29;4615;-78
2023/12/26 00:50:11;;;;;;;0.47;0.30;;;;;;;9.97;80.80;99186.94;332292;29;16995;-78
2023/12/26 00:50:24;;;;;;;0.45;0.40;;;;;;;9.92;80.49;99167.22;330850;29;17040;-78
2023/12/26 00:50:41;;;;;;;0.35;0.30;;;;;;;9.92;80.74;99175.88;331450;29;17248;-78
2023/12/26 00:50:53;;;;;;;0.40;0.20;;;;;;;9.91;80.57;99176.78;328361;28;17532;-78
2023/12/26 00:51:05;;;;;;;0.80;0.40;;;;;;;9.89;80.93;99178.59;334108;29;5281;-78
2023/12/26 00:51:18;;;;;;;0.77;0.30;;;;;;;9.88;80.78;99176.03;331892;29;18432;-78
2023/12/26 00:51:30;;;;;;;0.88;0.40;;;;;;;9.95;81.02;99183.53;335140;29;4535;-78
2023/12/26 00:51:42;;;;;;;0.68;0.40;;;;;;;9.98;80.98;99188.63;329565;29;18358;-78
2023/12/26 00:51:54;;;;;;;0.70;0.40;;;;;;;9.91;80.68;99176.78;331257;29;5613;-78
2023/12/26 00:52:07;;;;;;;0.80;0.32;;;;;;;9.87;81.00;99185.59;329188;29;16827;-78
2023/12/26 00:52:19;;;;;;;1.30;0.40;;;;;;;9.87;80.95;99176.97;328111;29;4570;-78
2023/12/26 00:52:32;;;;;;;1.58;0.40;;;;;;;9.86;80.84;99175.25;329987;29;4836;-79
2023/12/26 00:52:44;;;;;;;1.23;0.30;;;;;;;9.83;81.00;99178.81;332934;29;4552;-78
2023/12/26 00:52:56;;;;;;;0.40;0.22;;;;;;;9.82;81.15;99174.53;329429;29;11253;-78
2023/12/26 00:53:09;;;;;;;0.30;0.30;;;;;;;9.72;81.23;99181.81;332033;29;4542;-78
2023/12/26 00:53:22;;;;;;;0.20;0.20;;;;;;;9.78;81.38;99178.16;328955;29;4924;-77
2023/12/26 00:53:34;;;;;;;0.25;0.20;;;;;;;9.83;80.94;99173.63;331608;29;5828;-78
2023/12/26 00:53:46;;;;;;;1.40;0.20;;;;;;;9.82;81.10;99177.13;329953;29;5549;-78
2023/12/26 00:53:58;;;;;;;1.50;0.30;;;;;;;9.81;80.97;99180.63;335388;28;4533;-78
2023/12/26 00:54:10;;;;;;;0.30;0.30;;;;;;;9.84;81.01;99185.72;336242;28;4598;-78
2023/12/26 00:54:22;;;;;;;0.20;0.20;;;;;;;9.88;80.82;99176.91;332521;28;16497;-78
2023/12/26 00:54:36;;;;;;;0.20;0.20;;;;;;;9.94;80.52;99186.19;334544;28;5316;-78
2023/12/26 00:54:48;;;;;;;0.30;0.30;;;;;;;9.97;80.96;99165.31;332023;29;18239;-78
2023/12/26 00:55:00;;;;;;;0.30;0.30;;;;;;;10.05;80.14;99178.03;335505;28;4554;-78
2023/12/26 00:55:12;;;;;;;0.22;0.22;;;;;;;10.02;80.16;99183.31;328539;28;18169;-78
2023/12/26 00:55:25;;;;;;;0.30;0.28;;;;;;;9.96;80.71;99179.19;334658;28;4576;-78
2023/12/26 00:55:38;;;;;;;0.30;0.25;;;;;;;9.97;80.59;99171.34;332217;28;18197;-78
2023/12/26 00:55:50;;;;;;;0.22;0.22;;;;;;;9.98;80.78;99185.19;335814;28;4522;-77
2023/12/26 00:56:02;;;;;;;0.38;0.38;;;;;;;9.92;80.98;99188.88;332553;28;18007;-78
2023/12/26 00:56:15;;;;;;;0.90;0.47;;;;;;;9.91;81.06;99191.50;336063;28;4543;-77
2023/12/26 00:56:27;;;;;;;0.82;0.40;;;;;;;9.90;81.13;99185.47;335133;28;5044;-78
2023/12/26 00:56:39;;;;;;;0.55;0.30;;;;;;;9.92;81.23;99188.88;331938;29;18628;-77
2023/12/26 00:56:51;;;;;;;0.32;0.32;;;;;;;9.86;80.90;99180.44;334096;29;4984;-78
2023/12/26 00:57:03;;;;;;;0.45;0.38;;;;;;;9.88;81.04;99178.63;331668;29;16218;-78
2023/12/26 00:57:15;;;;;;;0.40;0.30;;;;;;;9.87;81.56;99175.19;333889;29;6564;-78
2023/12/26 00:57:28;;;;;;;0.40;0.30;;;;;;;9.88;81.48;99187.28;329931;28;17830;-78
2023/12/26 00:57:40;;;;;;;0.50;0.30;;;;;;;9.87;81.22;99179.56;330918;29;4596;-78
2023/12/26 00:57:52;;;;;;;0.50;0.30;;;;;;;9.85;81.42;99174.41;332395;29;18861;-78
2023/12/26 00:58:04;;;;;;;0.28;0.28;;;;;;;9.90;80.95;99184.63;324898;29;18919;-78
2023/12/26 00:58:16;;;;;;;0.80;0.30;;;;;;;9.91;81.19;99184.56;332513;29;4859;-78
2023/12/26 00:58:29;;;;;;;0.90;0.30;;;;;;;9.94;81.52;99187.06;324739;29;4760;-77
2023/12/26 00:58:41;;;;;;;0.88;0.30;;;;;;;10.03;80.91;99190.22;331559;29;5079;-79
2023/12/26 00:58:53;;;;;;;1.60;0.40;;;;;;;10.06;80.66;99205.66;330883;29;13183;-78
2023/12/26 00:59:05;;;;;;;1.83;0.50;;;;;;;10.08;80.54;99177.88;333698;29;5450;-77
2023/12/26 00:59:17;;;;;;;0.70;0.32;;;;;;;9.99;80.62;99177.34;333639;29;5111;-77
2023/12/26 00:59:29;;;;;;;0.25;0.20;;;;;;;10.00;80.91;99173.84;326986;29;17959;-77
2023/12/26 00:59:41;;;;;;;0.60;0.30;;;;;;;9.96;81.02;99182.66;334665;29;4597;-77
2023/12/26 00:59:54;;;;;;;0.60;0.30;;;;;;;10.03;80.71;99177.22;331614;29;18178;-78
2023/12/26 01:00:07;;;;;;;0.28;0.25;;;;;;;10.07;80.46;99181.41;334100;29;4650;-78